page 7319 of 1004592 registered users

eBook PostsUsers

  1. 0namelocket81 registered @ 2013-05-12 17:34:22, last login @ 2013-05-12 17:34:22
  2. 0helen9winter registered @ 2013-05-12 17:34:47, last login @ 2013-05-12 17:34:47
  3. 0bangle6law registered @ 2013-05-12 17:38:14, last login @ 2013-05-12 17:38:14
  4. 0water9format registered @ 2013-05-12 17:39:08, last login @ 2013-05-12 17:39:08
  5. 0kaguxiverhome717 registered @ 2013-05-12 17:39:46, last login @ 2013-05-12 17:39:46
  6. 0pandacancer41 registered @ 2013-05-12 17:42:10, last login @ 2013-05-12 17:42:10
  7. 0cherry7beast registered @ 2013-05-12 17:42:41, last login @ 2013-05-12 17:42:41
  8. 0heighttemper41 registered @ 2013-05-12 17:43:06, last login @ 2013-05-12 17:43:06
  9. 0crayon9gray registered @ 2013-05-12 17:43:31, last login @ 2013-05-12 17:43:31
  10. 0gearloan47 registered @ 2013-05-12 17:44:08, last login @ 2013-05-12 17:44:08
  11. 0salad09wolf registered @ 2013-05-12 17:44:28, last login @ 2013-05-12 17:44:28
  12. 0raj9033 registered @ 2013-05-12 17:44:37, last login @ 2013-05-12 17:44:37
  13. 0mahi1981 registered @ 2013-05-12 17:44:39, last login @ 2013-05-12 17:44:39
  14. 0start1119 registered @ 2013-05-12 17:46:19, last login @ 2013-05-12 17:47:07
  15. 0recess31liquid registered @ 2013-05-12 17:46:26, last login @ 2013-05-12 17:46:26
  16. 0udayks registered @ 2013-05-12 17:47:58, last login @ 2013-05-12 17:47:58
  17. 0pantsfont92 registered @ 2013-05-12 17:48:14, last login @ 2013-05-12 17:48:14
  18. 0swamprugby5 registered @ 2013-05-12 17:48:17, last login @ 2013-05-12 17:48:17
  19. 0marchisland60 registered @ 2013-05-12 17:48:36, last login @ 2013-05-12 17:48:36
  20. 0gamealto91 registered @ 2013-05-12 17:48:49, last login @ 2013-05-12 17:48:49
  21. 0hemp3action registered @ 2013-05-12 17:49:01, last login @ 2013-05-12 17:49:01
  22. 0dustmass49 registered @ 2013-05-12 17:51:22, last login @ 2013-05-12 17:51:22
  23. 0drum2rubber registered @ 2013-05-12 17:51:33, last login @ 2013-05-12 17:51:33
  24. 0man81way registered @ 2013-05-12 17:54:37, last login @ 2013-05-12 17:54:37
  25. 0boltbelt45 registered @ 2013-05-12 17:55:52, last login @ 2013-05-12 17:55:52
  26. 0area35willow registered @ 2013-05-12 17:55:59, last login @ 2013-05-12 17:55:59
  27. 0onioncity96 registered @ 2013-05-12 17:56:02, last login @ 2013-05-12 17:56:02
  28. 0ramie95wedge registered @ 2013-05-12 17:56:30, last login @ 2013-05-12 17:56:30
  29. 0band14tuna registered @ 2013-05-12 18:01:32, last login @ 2013-05-12 18:01:32
  30. 0freeze6tip registered @ 2013-05-12 18:04:10, last login @ 2013-05-12 18:04:10
  31. 0toasthoney91 registered @ 2013-05-12 18:05:47, last login @ 2013-05-12 18:05:47
  32. 0octave1air registered @ 2013-05-12 18:05:53, last login @ 2013-05-12 18:05:53
  33. 0sealdrake1 registered @ 2013-05-12 18:06:38, last login @ 2013-05-12 18:06:38
  34. 0radioairbus81 registered @ 2013-05-12 18:06:50, last login @ 2013-05-12 18:29:53
  35. 0wax62maid registered @ 2013-05-12 18:08:10, last login @ 2013-05-12 18:08:10
  36. 0swiss22birth registered @ 2013-05-12 18:08:25, last login @ 2013-05-12 18:08:25
  37. 0martialarts700 registered @ 2013-05-12 18:09:11, last login @ 2013-05-12 18:09:11
  38. 0air68law registered @ 2013-05-12 18:09:20, last login @ 2013-05-12 18:09:20
  39. 0oyster0bead registered @ 2013-05-12 18:09:42, last login @ 2013-05-12 18:09:42
  40. 0jeepzone80 registered @ 2013-05-12 18:10:00, last login @ 2013-05-12 18:10:00
  41. 0sinatiki registered @ 2013-05-12 18:10:48, last login @ 2013-05-12 19:00:47
  42. 0vaultsailor26 registered @ 2013-05-12 18:11:49, last login @ 2013-05-12 18:11:49
  43. 0m57 registered @ 2013-05-12 18:11:56, last login @ 2013-05-12 18:11:56
  44. 0badge94hemp registered @ 2013-05-12 18:12:16, last login @ 2013-05-12 18:12:16
  45. 0virgo82repair registered @ 2013-05-12 18:14:24, last login @ 2013-05-12 18:14:24
  46. 0marysoy3 registered @ 2013-05-12 18:15:10, last login @ 2013-05-12 18:15:10
  47. 0bangle44claus registered @ 2013-05-12 18:15:47, last login @ 2013-05-12 18:15:47
  48. 0scent13radar registered @ 2013-05-12 18:16:45, last login @ 2013-05-12 18:16:45
  49. 0spot51flute registered @ 2013-05-12 18:17:19, last login @ 2013-05-12 18:17:19
  50. 0wound7fox registered @ 2013-05-12 18:17:47, last login @ 2013-05-12 18:17:47
  51. 0beaverdock24 registered @ 2013-05-12 18:19:18, last login @ 2013-05-12 18:52:27
  52. 0campknee42 registered @ 2013-05-12 18:20:24, last login @ 2013-05-12 18:20:24
  53. 0nail6llama registered @ 2013-05-12 18:20:36, last login @ 2013-05-12 18:20:36
  54. 0laura42wine registered @ 2013-05-12 18:23:21, last login @ 2013-05-12 18:23:21
  55. 0pastecrab8 registered @ 2013-05-12 18:24:09, last login @ 2013-05-12 18:55:41
  56. 0deadappeal7 registered @ 2013-05-12 18:27:48, last login @ 2013-05-12 18:27:48
  57. 0hubcap1sock registered @ 2013-05-12 18:29:01, last login @ 2013-05-12 18:29:01
  58. 0pineview99 registered @ 2013-05-12 18:29:42, last login @ 2013-05-12 18:29:42
  59. 0akeemwisdom registered @ 2013-05-12 18:30:53, last login @ 2013-05-12 18:30:53
  60. 0linkcrayon50 registered @ 2013-05-12 18:31:25, last login @ 2013-05-12 18:31:25
  61. 0tile27coke registered @ 2013-05-12 18:34:10, last login @ 2013-05-12 18:34:10
  62. 0rose26meal registered @ 2013-05-12 18:34:15, last login @ 2013-05-12 18:34:15
  63. 0fact59saw registered @ 2013-05-12 18:35:25, last login @ 2013-05-12 18:35:25
  64. 0dew4lace registered @ 2013-05-12 18:38:09, last login @ 2013-05-12 18:38:09
  65. 0heavenbox8 registered @ 2013-05-12 18:39:16, last login @ 2013-05-12 18:39:16
  66. 0lowcorn9 registered @ 2013-05-12 18:39:47, last login @ 2013-05-12 18:39:47
  67. 0townyacht7 registered @ 2013-05-12 18:42:12, last login @ 2013-05-12 18:42:12
  68. 0noisebee90 registered @ 2013-05-12 18:42:47, last login @ 2013-05-12 18:42:47
  69. 0polishtwig0 registered @ 2013-05-12 18:43:21, last login @ 2013-05-12 18:43:21
  70. 0comic1hub registered @ 2013-05-12 18:43:42, last login @ 2013-05-12 18:43:42
  71. 0lamp8airbus registered @ 2013-05-12 18:43:57, last login @ 2013-05-12 18:43:57
  72. 0comicflock9 registered @ 2013-05-12 18:44:08, last login @ 2013-05-12 18:44:08
  73. 0amm29us registered @ 2013-05-12 18:44:59, last login @ 2013-05-12 18:44:59
  74. 0dock17spider registered @ 2013-05-12 18:46:42, last login @ 2013-05-12 18:46:42
  75. 0freddasundberg registered @ 2013-05-12 18:49:03, last login @ 2013-05-12 18:49:03
  76. 0stop4baker registered @ 2013-05-12 18:51:03, last login @ 2013-05-12 18:51:03
  77. 0liquidtoad8 registered @ 2013-05-12 18:51:08, last login @ 2013-05-12 18:51:08
  78. 0result0sense registered @ 2013-05-12 18:51:13, last login @ 2013-05-12 18:51:13
  79. 0singer9finger registered @ 2013-05-12 18:53:39, last login @ 2013-05-12 18:53:39
  80. 0pig9queen registered @ 2013-05-12 18:54:05, last login @ 2013-05-12 18:54:05
  81. 0lathe7mice registered @ 2013-05-12 18:54:38, last login @ 2013-05-12 18:54:38
  82. 0bench96quiet registered @ 2013-05-12 18:54:50, last login @ 2013-05-12 18:54:50
  83. 0notify0woolen registered @ 2013-05-12 18:56:12, last login @ 2013-05-12 18:56:12
  84. 0tentsprout72 registered @ 2013-05-12 18:56:31, last login @ 2013-05-12 18:56:31
  85. 0moon83size registered @ 2013-05-12 18:57:23, last login @ 2013-05-12 18:57:23
  86. 0tirelion4 registered @ 2013-05-12 18:57:51, last login @ 2013-05-12 18:57:51
  87. 0baboon0man registered @ 2013-05-12 19:00:09, last login @ 2013-05-12 19:00:09
  88. 0toothcarrot4 registered @ 2013-05-12 19:00:12, last login @ 2013-05-12 19:00:12
  89. 0temperfaucet37 registered @ 2013-05-12 19:01:50, last login @ 2013-05-12 19:01:50
  90. 0water32clover registered @ 2013-05-12 19:02:21, last login @ 2013-05-12 19:02:21
  91. 0beambat44 registered @ 2013-05-12 19:02:35, last login @ 2013-05-12 19:02:35
  92. 0asmayusuf registered @ 2013-05-12 19:02:36, last login @ 2013-05-12 19:02:36
  93. 0fleshdeath93 registered @ 2013-05-12 19:03:05, last login @ 2013-05-12 19:03:05
  94. 0honey33boy registered @ 2013-05-12 19:03:10, last login @ 2013-05-12 19:03:10
  95. 0drilltv0 registered @ 2013-05-12 19:03:24, last login @ 2013-05-12 19:03:24
  96. 0beam9pantry registered @ 2013-05-12 19:03:37, last login @ 2013-05-12 19:03:37
  97. 0unitpuma2 registered @ 2013-05-12 19:04:15, last login @ 2013-05-12 19:41:30
  98. 0giantperu0 registered @ 2013-05-12 19:06:39, last login @ 2013-05-12 19:06:39
  99. 0top16greece registered @ 2013-05-12 19:07:06, last login @ 2013-05-12 19:07:06
  100. 0powder15flavor registered @ 2013-05-12 19:07:38, last login @ 2013-05-12 19:07:38
  101. 0rabbitdress0 registered @ 2013-05-12 19:08:12, last login @ 2013-05-12 19:08:12

More...

[7329] [7328] [7327] [7326] [7325] [7324] [7323] [7322] [7321] [7320] [7319] [7318] [7317] [7316] [7315] [7314] [7313] [7312] [7311] [7310] ...[1]
Back to Top